createdAt,value
2023-03-13T00:01:23.473Z,54.13
2023-03-13T00:03:50.160Z,53.70
2023-03-13T00:06:17.043Z,53.81
2023-03-13T00:08:44.882Z,54.14
2023-03-13T00:11:12.995Z,54.57
2023-03-13T00:13:39.722Z,55.18
2023-03-13T00:16:15.471Z,55.50
2023-03-13T00:18:47.249Z,55.62
2023-03-13T00:21:14.082Z,55.72
2023-03-13T00:23:40.976Z,55.62
2023-03-13T00:26:12.742Z,55.47
2023-03-13T00:28:40.725Z,55.42
2023-03-13T00:31:16.383Z,55.55
2023-03-13T00:33:44.953Z,55.92
2023-03-13T00:36:14.086Z,56.34
2023-03-13T00:38:41.131Z,56.39
2023-03-13T00:41:13.922Z,56.01
2023-03-13T00:43:42.867Z,55.45
2023-03-13T00:46:10.711Z,55.28
2023-03-13T00:48:37.177Z,54.93
2023-03-13T00:51:04.885Z,54.75
2023-03-13T00:53:31.515Z,54.50
2023-03-13T00:56:07.497Z,54.72
2023-03-13T00:58:36.621Z,54.75
2023-03-13T01:01:12.362Z,54.90
2023-03-13T01:03:40.422Z,54.85
2023-03-13T01:06:09.901Z,55.55
2023-03-13T01:08:37.096Z,55.55
2023-03-13T01:11:15.167Z,55.69
2023-03-13T01:13:42.147Z,55.70
2023-03-13T01:16:11.580Z,55.89
2023-03-13T01:18:40.582Z,56.06
2023-03-13T01:21:07.778Z,55.73
2023-03-13T01:23:34.427Z,56.06
2023-03-13T01:26:01.560Z,55.86
2023-03-13T01:28:28.220Z,55.46
2023-03-13T01:30:54.939Z,55.11
2023-03-13T01:33:21.659Z,54.68
2023-03-13T01:35:48.195Z,54.53
2023-03-13T01:38:14.973Z,54.18
2023-03-13T01:40:47.026Z,54.32
2023-03-13T01:43:28.861Z,53.69
2023-03-13T01:46:07.431Z,53.71
2023-03-13T01:48:36.836Z,54.24
2023-03-13T01:51:09.502Z,54.44
2023-03-13T01:53:40.893Z,54.46
2023-03-13T01:56:12.044Z,54.47
2023-03-13T01:58:38.483Z,54.10
2023-03-13T02:01:06.078Z,53.61
2023-03-13T02:03:35.384Z,54.87
2023-03-13T02:06:02.905Z,54.77
2023-03-13T02:08:42.919Z,54.59
2023-03-13T02:11:27.813Z,54.68
2023-03-13T02:13:55.913Z,55.24
2023-03-13T02:16:22.921Z,55.25
2023-03-13T02:18:49.515Z,55.44
2023-03-13T02:21:32.171Z,55.49
2023-03-13T02:24:08.839Z,55.43
2023-03-13T02:26:35.325Z,55.36
2023-03-13T02:29:01.936Z,55.57
2023-03-13T02:31:28.621Z,55.16
2023-03-13T02:33:55.947Z,55.08
2023-03-13T02:36:23.284Z,55.31
2023-03-13T02:38:58.116Z,54.90
2023-03-13T02:41:25.658Z,54.62
2023-03-13T02:43:52.146Z,54.80
2023-03-13T02:46:20.709Z,54.64
2023-03-13T02:48:52.843Z,55.02
2023-03-13T02:51:32.915Z,55.93
2023-03-13T02:54:04.687Z,55.76
2023-03-13T02:56:34.361Z,55.70
2023-03-13T02:59:00.753Z,55.90
2023-03-13T03:01:27.570Z,55.50
2023-03-13T03:03:54.281Z,55.80
2023-03-13T03:06:20.789Z,55.99
2023-03-13T03:08:47.180Z,56.25
2023-03-13T03:11:13.799Z,56.02
2023-03-13T03:13:40.231Z,56.36
2023-03-13T03:16:12.471Z,56.94
2023-03-13T03:18:39.138Z,56.08
2023-03-13T03:21:06.368Z,55.92
2023-03-13T03:23:36.984Z,56.02
2023-03-13T03:26:04.901Z,56.09
2023-03-13T03:28:31.827Z,55.71
2023-03-13T03:31:03.226Z,55.44
2023-03-13T03:33:29.589Z,55.58
2023-03-13T03:36:00.812Z,55.16
2023-03-13T03:38:27.383Z,55.54
2023-03-13T03:40:53.822Z,55.36
2023-03-13T03:43:20.211Z,55.57
2023-03-13T03:45:46.582Z,55.03
2023-03-13T03:48:13.065Z,55.34
2023-03-13T03:50:39.424Z,55.55
2023-03-13T03:53:05.873Z,55.19
2023-03-13T03:55:34.767Z,55.11
2023-03-13T03:58:01.651Z,55.07
2023-03-13T04:00:28.369Z,55.21
2023-03-13T04:02:56.185Z,55.53
2023-03-13T04:05:23.150Z,56.45
2023-03-13T04:07:49.682Z,56.27
2023-03-13T04:10:16.400Z,56.20
2023-03-13T04:12:42.865Z,56.13
2023-03-13T04:15:10.664Z,56.66
2023-03-13T04:17:36.980Z,56.40
2023-03-13T04:20:04.824Z,56.76
2023-03-13T04:22:31.333Z,56.92
2023-03-13T04:24:57.708Z,56.87
2023-03-13T04:27:24.119Z,56.71
2023-03-13T04:29:50.631Z,56.62
2023-03-13T04:32:17.069Z,57.04
2023-03-13T04:34:43.460Z,58.06
2023-03-13T04:37:09.870Z,59.33
2023-03-13T04:39:36.326Z,59.13
2023-03-13T04:42:02.868Z,59.81
2023-03-13T04:44:29.301Z,60.26
2023-03-13T04:46:55.679Z,59.39
2023-03-13T04:49:22.192Z,59.65
2023-03-13T04:51:48.603Z,59.90
2023-03-13T04:54:14.993Z,60.56
2023-03-13T04:56:44.185Z,61.08
2023-03-13T04:59:14.738Z,61.19
2023-03-13T05:01:41.857Z,60.54
2023-03-13T05:04:08.754Z,61.32
2023-03-13T05:06:35.261Z,60.59
2023-03-13T05:09:02.501Z,60.01
2023-03-13T05:11:29.173Z,59.25
2023-03-13T05:13:55.575Z,58.80
2023-03-13T05:16:22.380Z,58.91
2023-03-13T05:18:48.926Z,58.32
2023-03-13T05:21:15.503Z,58.18
2023-03-13T05:23:42.042Z,58.44
2023-03-13T05:26:08.753Z,58.07
2023-03-13T05:28:35.237Z,58.17
2023-03-13T05:31:01.773Z,58.69
2023-03-13T05:33:28.267Z,57.81
2023-03-13T05:35:54.722Z,57.83
2023-03-13T05:38:21.208Z,58.25
2023-03-13T05:40:47.545Z,58.07
2023-03-13T05:43:13.911Z,58.60
2023-03-13T05:45:40.452Z,57.71
2023-03-13T05:48:07.060Z,57.69
2023-03-13T05:50:33.497Z,58.77
2023-03-13T05:52:59.848Z,57.99
2023-03-13T05:55:26.173Z,58.35
2023-03-13T05:57:52.581Z,58.00
2023-03-13T06:00:19.480Z,58.37
2023-03-13T06:02:45.965Z,58.50
2023-03-13T06:05:12.591Z,59.30
2023-03-13T06:07:39.210Z,59.25
2023-03-13T06:10:06.021Z,59.40
2023-03-13T06:12:32.734Z,58.83
2023-03-13T06:14:59.122Z,58.20
2023-03-13T06:17:25.687Z,58.55
2023-03-13T06:19:52.213Z,58.60
2023-03-13T06:22:18.975Z,58.20
2023-03-13T06:24:46.906Z,57.79
2023-03-13T06:27:13.544Z,58.36
2023-03-13T06:29:39.891Z,57.42
2023-03-13T06:32:06.838Z,57.57
2023-03-13T06:34:33.439Z,57.52
2023-03-13T06:37:00.510Z,56.90
2023-03-13T06:39:27.065Z,56.60
2023-03-13T06:41:53.459Z,56.45
2023-03-13T06:44:19.881Z,56.81
2023-03-13T06:46:46.394Z,57.21
2023-03-13T06:49:12.871Z,56.84
2023-03-13T06:51:39.416Z,58.04
2023-03-13T06:54:05.905Z,57.88
2023-03-13T06:56:32.616Z,57.55
2023-03-13T06:59:00.138Z,57.80
2023-03-13T07:01:26.826Z,58.36
2023-03-13T07:03:53.691Z,58.34
2023-03-13T07:06:20.374Z,58.64
2023-03-13T07:08:48.003Z,58.32
2023-03-13T07:11:15.097Z,58.40
2023-03-13T07:13:41.854Z,57.90
2023-03-13T07:16:11.134Z,57.86
2023-03-13T07:18:38.294Z,57.43
2023-03-13T07:21:05.510Z,57.31
2023-03-13T07:23:33.476Z,57.16
2023-03-13T07:26:02.647Z,57.37
2023-03-13T07:28:30.926Z,56.86
2023-03-13T07:31:18.525Z,56.95
2023-03-13T07:33:45.880Z,57.08
2023-03-13T07:36:14.258Z,57.23
2023-03-13T07:38:41.262Z,56.99
2023-03-13T07:41:07.664Z,57.35
2023-03-13T07:43:34.254Z,57.29
2023-03-13T07:46:03.297Z,58.69
2023-03-13T07:48:35.480Z,59.13
2023-03-13T07:51:02.983Z,58.76
2023-03-13T07:53:30.196Z,57.92
2023-03-13T07:55:59.536Z,56.94
2023-03-13T07:58:28.916Z,57.36
2023-03-13T08:00:55.398Z,58.84
2023-03-13T08:03:23.399Z,58.64
2023-03-13T08:06:01.087Z,59.57
2023-03-13T08:08:28.558Z,58.90
2023-03-13T08:11:00.244Z,58.78
2023-03-13T08:13:26.625Z,59.59
2023-03-13T08:15:53.033Z,58.89
2023-03-13T08:18:19.502Z,57.85
2023-03-13T08:20:46.008Z,58.54
2023-03-13T08:23:12.389Z,57.42
2023-03-13T08:25:38.834Z,58.65
2023-03-13T08:28:05.434Z,57.94
2023-03-13T08:30:31.979Z,58.01
2023-03-13T08:32:58.437Z,57.61
2023-03-13T08:35:25.031Z,58.50
2023-03-13T08:37:52.176Z,58.49
2023-03-13T08:40:18.596Z,58.98
2023-03-13T08:42:44.977Z,59.36
2023-03-13T08:45:11.672Z,59.29
2023-03-13T08:47:38.122Z,58.66
2023-03-13T08:50:04.841Z,57.90
2023-03-13T08:52:31.366Z,57.68
2023-03-13T08:54:57.868Z,57.23
2023-03-13T08:57:24.316Z,56.05
2023-03-13T08:59:51.537Z,56.50
2023-03-13T09:02:20.717Z,57.15
2023-03-13T09:04:48.514Z,57.98
2023-03-13T09:07:14.927Z,58.19
2023-03-13T09:09:41.292Z,57.78
2023-03-13T09:12:15.513Z,58.62
2023-03-13T09:14:48.557Z,57.91
2023-03-13T09:17:15.048Z,56.82
2023-03-13T09:19:57.695Z,56.67
2023-03-13T09:22:25.979Z,55.52
2023-03-13T09:24:52.364Z,54.70
2023-03-13T09:27:18.765Z,54.26
2023-03-13T09:29:45.197Z,52.96
2023-03-13T09:32:11.710Z,51.76
2023-03-13T09:34:38.162Z,49.57
2023-03-13T09:37:04.682Z,48.51
2023-03-13T09:39:31.372Z,49.39
2023-03-13T09:42:14.107Z,49.15
2023-03-13T09:44:49.224Z,49.33
2023-03-13T09:47:29.505Z,49.10
2023-03-13T09:50:03.432Z,50.27
2023-03-13T09:52:40.943Z,51.11
2023-03-13T09:55:15.580Z,50.14
2023-03-13T09:58:08.088Z,50.71
2023-03-13T10:00:38.059Z,50.61
2023-03-13T10:03:23.061Z,49.71
2023-03-13T10:05:57.110Z,48.99
2023-03-13T10:08:33.644Z,48.04
2023-03-13T10:11:32.755Z,48.09
2023-03-13T10:14:06.413Z,48.02
2023-03-13T10:16:42.973Z,48.07
2023-03-13T10:19:16.322Z,47.95
2023-03-13T10:21:44.589Z,45.29
2023-03-13T10:24:26.145Z,45.16
2023-03-13T10:26:52.981Z,44.28
2023-03-13T10:29:24.979Z,43.88
2023-03-13T10:31:56.492Z,42.66
2023-03-13T10:34:23.522Z,42.77
2023-03-13T10:36:56.607Z,42.28
2023-03-13T10:39:25.703Z,41.61
2023-03-13T10:41:58.736Z,44.13
2023-03-13T10:44:32.722Z,44.20
2023-03-13T10:47:02.548Z,44.44
2023-03-13T10:49:30.614Z,44.21
2023-03-13T10:52:00.838Z,43.97
2023-03-13T10:54:36.452Z,42.95
2023-03-13T10:57:18.143Z,43.75
2023-03-13T10:59:52.962Z,43.51
2023-03-13T11:02:36.684Z,44.64
2023-03-13T11:05:23.704Z,46.24
2023-03-13T11:07:50.629Z,46.09
2023-03-13T11:10:25.320Z,45.12
2023-03-13T11:12:54.276Z,44.63
2023-03-13T11:15:41.804Z,45.42
2023-03-13T11:18:15.259Z,44.97
2023-03-13T11:20:45.940Z,44.58
2023-03-13T11:23:30.081Z,44.23
2023-03-13T11:26:19.353Z,43.61
2023-03-13T11:29:01.950Z,43.43
2023-03-13T11:31:30.080Z,43.67
2023-03-13T11:34:27.685Z,42.65
2023-03-13T11:37:03.471Z,42.27
2023-03-13T11:39:47.545Z,40.73
2023-03-13T11:42:45.051Z,39.96
2023-03-13T11:45:37.630Z,39.49
2023-03-13T11:48:14.771Z,38.30
2023-03-13T11:51:13.446Z,37.38
2023-03-13T11:54:17.406Z,36.75
2023-03-13T11:56:51.150Z,35.71
2023-03-13T11:59:26.405Z,35.14
2023-03-13T12:02:02.955Z,34.52
2023-03-13T12:04:42.108Z,35.08
2023-03-13T12:07:25.357Z,35.55
2023-03-13T12:09:56.542Z,35.71
2023-03-13T12:12:44.552Z,35.76
2023-03-13T12:15:14.255Z,35.32
2023-03-13T12:17:48.119Z,36.58
2023-03-13T12:20:47.416Z,36.37
2023-03-13T12:23:28.416Z,35.41
2023-03-13T12:26:04.811Z,35.69
2023-03-13T12:29:01.037Z,35.39
2023-03-13T12:31:27.444Z,36.02
2023-03-13T12:34:18.568Z,35.70
2023-03-13T12:37:07.408Z,34.48
2023-03-13T12:39:49.912Z,34.18
2023-03-13T12:42:40.920Z,32.30
2023-03-13T12:45:11.608Z,32.18
2023-03-13T12:47:57.188Z,32.13
2023-03-13T12:50:43.170Z,31.99
2023-03-13T12:53:25.367Z,32.54
2023-03-13T12:56:19.024Z,32.06
2023-03-13T12:58:53.057Z,31.46
2023-03-13T13:01:35.033Z,31.62
2023-03-13T13:04:08.029Z,30.94
2023-03-13T13:06:56.753Z,31.17
2023-03-13T13:09:27.008Z,31.56
2023-03-13T13:11:55.860Z,30.48
2023-03-13T13:14:22.172Z,30.83
2023-03-13T13:16:51.693Z,30.74
2023-03-13T13:19:24.158Z,29.69
2023-03-13T13:22:39.290Z,29.96
2023-03-13T13:25:18.078Z,30.74
2023-03-13T13:27:46.532Z,31.83
2023-03-13T13:30:19.019Z,31.85
2023-03-13T13:32:49.709Z,32.26
2023-03-13T13:35:30.483Z,32.43
2023-03-13T13:38:18.903Z,33.87
2023-03-13T13:41:22.444Z,33.65
2023-03-13T13:43:50.799Z,33.74
2023-03-13T13:46:29.084Z,33.70
2023-03-13T13:49:04.610Z,33.74
2023-03-13T13:51:32.843Z,33.82
2023-03-13T13:54:31.594Z,33.54
2023-03-13T13:57:00.677Z,33.20
2023-03-13T13:59:33.807Z,32.76
2023-03-13T14:02:10.689Z,31.90
2023-03-13T14:05:00.717Z,31.67
2023-03-13T14:07:33.031Z,31.91
2023-03-13T14:10:21.380Z,32.33
2023-03-13T14:12:57.051Z,33.15
2023-03-13T14:15:29.171Z,33.04
2023-03-13T14:18:03.132Z,33.23
2023-03-13T14:20:49.837Z,33.45
2023-03-13T14:23:42.513Z,33.46
2023-03-13T14:26:11.973Z,33.66
2023-03-13T14:28:42.285Z,33.77
2023-03-13T14:31:09.483Z,33.46
2023-03-13T14:33:35.899Z,33.52
2023-03-13T14:36:03.132Z,33.45
2023-03-13T14:38:30.135Z,33.92
2023-03-13T14:40:57.082Z,33.54
2023-03-13T14:43:31.002Z,33.16
2023-03-13T14:45:57.581Z,32.98
2023-03-13T14:48:24.505Z,32.63
2023-03-13T14:51:08.709Z,32.49
2023-03-13T14:53:40.518Z,32.71
2023-03-13T14:56:19.171Z,33.30
2023-03-13T14:58:46.593Z,33.52
2023-03-13T15:01:33.453Z,33.68
2023-03-13T15:04:00.120Z,33.65
2023-03-13T15:06:27.503Z,33.99
2023-03-13T15:09:21.334Z,34.08
2023-03-13T15:11:56.647Z,34.13
2023-03-13T15:14:38.805Z,34.66
2023-03-13T15:17:15.423Z,34.60
2023-03-13T15:19:42.919Z,34.82
2023-03-13T15:22:13.988Z,34.83
2023-03-13T15:24:41.597Z,34.54
2023-03-13T15:27:28.393Z,34.61
2023-03-13T15:29:54.822Z,34.72
2023-03-13T15:32:28.916Z,35.40
2023-03-13T15:34:58.768Z,35.36
2023-03-13T15:37:26.489Z,35.82
2023-03-13T15:39:53.913Z,35.36
2023-03-13T15:42:20.363Z,35.36
2023-03-13T15:44:46.917Z,35.81
2023-03-13T15:47:17.537Z,35.06
2023-03-13T15:49:46.191Z,35.31
2023-03-13T15:52:19.361Z,34.79
2023-03-13T15:54:46.456Z,35.29
2023-03-13T15:57:16.072Z,35.34
2023-03-13T15:59:44.301Z,35.64
2023-03-13T16:02:22.684Z,36.02
2023-03-13T16:04:49.549Z,36.21
2023-03-13T16:07:18.566Z,35.96
2023-03-13T16:09:45.005Z,36.08
2023-03-13T16:12:12.739Z,36.19
2023-03-13T16:14:40.171Z,36.05
2023-03-13T16:17:15.204Z,35.89
2023-03-13T16:19:42.288Z,36.22
2023-03-13T16:22:08.952Z,36.43
2023-03-13T16:24:35.453Z,36.15
2023-03-13T16:27:01.996Z,36.24
2023-03-13T16:29:28.470Z,36.61
2023-03-13T16:31:54.886Z,37.05
2023-03-13T16:34:21.570Z,37.00
2023-03-13T16:36:50.268Z,37.40
2023-03-13T16:39:16.864Z,37.95
2023-03-13T16:41:43.318Z,37.94
2023-03-13T16:44:10.255Z,38.27
2023-03-13T16:46:39.433Z,38.16
2023-03-13T16:49:07.174Z,38.21
2023-03-13T16:51:33.920Z,38.37
2023-03-13T16:54:00.423Z,38.76
2023-03-13T16:56:34.098Z,38.63
2023-03-13T16:59:02.262Z,38.37
2023-03-13T17:01:29.280Z,38.62
2023-03-13T17:03:59.734Z,38.83
2023-03-13T17:06:28.934Z,38.86
2023-03-13T17:08:56.305Z,38.69
2023-03-13T17:11:23.080Z,39.37
2023-03-13T17:13:52.196Z,39.20
2023-03-13T17:16:22.008Z,39.15
2023-03-13T17:18:51.537Z,39.24
2023-03-13T17:21:20.691Z,39.08
2023-03-13T17:23:47.361Z,39.25
2023-03-13T17:26:23.738Z,39.53
2023-03-13T17:28:53.151Z,39.67
2023-03-13T17:31:21.646Z,39.95
2023-03-13T17:33:48.811Z,40.81
2023-03-13T17:36:24.755Z,41.12
2023-03-13T17:39:02.916Z,41.32
2023-03-13T17:41:32.231Z,42.06
2023-03-13T17:44:03.560Z,43.20
2023-03-13T17:46:41.956Z,44.30
2023-03-13T17:49:14.168Z,45.24
2023-03-13T17:51:41.543Z,45.93
2023-03-13T17:54:09.046Z,46.19
2023-03-13T17:56:38.869Z,46.56
2023-03-13T17:59:07.115Z,46.99
2023-03-13T18:01:34.909Z,46.88
2023-03-13T18:04:02.340Z,46.94
2023-03-13T18:06:31.479Z,47.47
2023-03-13T18:09:08.011Z,47.27
2023-03-13T18:11:36.477Z,47.81
2023-03-13T18:14:03.970Z,48.40
2023-03-13T18:16:37.639Z,48.77
2023-03-13T18:19:06.056Z,48.90
2023-03-13T18:21:32.696Z,48.93
2023-03-13T18:23:59.351Z,49.03
2023-03-13T18:26:30.669Z,49.14
2023-03-13T18:29:00.109Z,49.30
2023-03-13T18:31:32.116Z,49.14
2023-03-13T18:33:59.563Z,48.60
2023-03-13T18:36:27.358Z,48.68
2023-03-13T18:38:54.243Z,48.31
2023-03-13T18:41:20.723Z,47.56
2023-03-13T18:43:47.222Z,47.21
2023-03-13T18:46:34.199Z,65.87
2023-03-13T18:49:01.228Z,69.05
2023-03-13T18:51:28.280Z,71.81
2023-03-13T18:53:55.358Z,72.92
2023-03-13T18:56:31.135Z,73.16
2023-03-13T18:58:58.684Z,73.42
2023-03-13T19:01:27.814Z,73.64
2023-03-13T19:03:54.601Z,73.38
2023-03-13T19:06:31.310Z,72.93
2023-03-13T19:09:00.223Z,72.82
2023-03-13T19:11:30.293Z,72.95
2023-03-13T19:13:57.409Z,73.26
2023-03-13T19:16:27.786Z,72.71
2023-03-13T19:18:54.780Z,72.91
2023-03-13T19:21:26.294Z,73.05
2023-03-13T19:23:53.799Z,73.14
2023-03-13T19:26:30.610Z,73.18
2023-03-13T19:28:57.489Z,73.33
2023-03-13T19:31:24.298Z,73.54
2023-03-13T19:33:53.487Z,72.90
2023-03-13T19:36:22.707Z,72.15
2023-03-13T19:38:49.366Z,73.04
2023-03-13T19:41:16.379Z,73.29
2023-03-13T19:43:43.383Z,73.36
2023-03-13T19:46:19.472Z,73.48
2023-03-13T19:48:46.134Z,72.85
2023-03-13T19:51:12.520Z,73.50
2023-03-13T19:53:39.734Z,73.97
2023-03-13T19:56:27.502Z,74.33
2023-03-13T19:58:59.473Z,75.33
2023-03-13T20:01:26.571Z,76.51
2023-03-13T20:03:53.084Z,76.54
2023-03-13T20:06:31.601Z,76.78
2023-03-13T20:09:00.511Z,76.08
2023-03-13T20:11:28.370Z,76.43
2023-03-13T20:13:55.579Z,76.55
2023-03-13T20:16:23.272Z,76.86
2023-03-13T20:18:49.905Z,76.52
2023-03-13T20:21:17.085Z,76.91
2023-03-13T20:23:48.510Z,76.96
2023-03-13T20:26:17.159Z,76.44
2023-03-13T20:28:46.012Z,75.70
2023-03-13T20:31:12.657Z,75.16
2023-03-13T20:33:40.295Z,75.23
2023-03-13T20:36:12.227Z,74.76
2023-03-13T20:38:39.796Z,74.31
2023-03-13T20:41:06.291Z,74.30
2023-03-13T20:43:33.657Z,74.21
2023-03-13T20:46:00.540Z,74.48
2023-03-13T20:48:28.143Z,74.40
2023-03-13T20:50:57.090Z,74.75
2023-03-13T20:53:24.613Z,74.88
2023-03-13T20:55:51.515Z,74.69
2023-03-13T20:58:21.818Z,74.85
2023-03-13T21:00:48.850Z,75.17
2023-03-13T21:03:17.182Z,74.72
2023-03-13T21:05:44.281Z,74.42
2023-03-13T21:08:11.271Z,74.64
2023-03-13T21:10:41.520Z,74.73
2023-03-13T21:13:09.961Z,74.38
2023-03-13T21:15:37.065Z,74.34
2023-03-13T21:18:04.638Z,74.43
2023-03-13T21:20:31.439Z,74.35
2023-03-13T21:22:57.905Z,73.77
2023-03-13T21:25:24.840Z,74.13
2023-03-13T21:27:51.286Z,74.72
2023-03-13T21:30:20.670Z,74.53
2023-03-13T21:32:48.478Z,74.65
2023-03-13T21:35:15.437Z,74.85
2023-03-13T21:37:43.474Z,75.17
2023-03-13T21:40:11.583Z,75.27
2023-03-13T21:42:38.017Z,75.34
2023-03-13T21:45:05.264Z,75.02
2023-03-13T21:47:36.517Z,74.52
2023-03-13T21:50:06.028Z,74.44
2023-03-13T21:52:34.361Z,74.57
2023-03-13T21:55:03.281Z,74.52
2023-03-13T21:57:29.654Z,74.75
2023-03-13T21:59:56.169Z,74.91
2023-03-13T22:02:22.799Z,74.64
2023-03-13T22:04:49.224Z,74.36
2023-03-13T22:07:15.581Z,73.71
2023-03-13T22:09:41.942Z,74.70
2023-03-13T22:12:10.708Z,74.57
2023-03-13T22:14:37.186Z,74.22
2023-03-13T22:17:03.513Z,74.21
2023-03-13T22:19:29.911Z,74.21
2023-03-13T22:21:56.260Z,74.22
2023-03-13T22:24:22.735Z,74.20
2023-03-13T22:26:49.104Z,74.40
2023-03-13T22:29:15.777Z,74.34
2023-03-13T22:31:42.146Z,74.11
2023-03-13T22:34:08.509Z,74.21
2023-03-13T22:36:34.902Z,74.08
2023-03-13T22:39:01.397Z,73.70
2023-03-13T22:41:27.860Z,74.05
2023-03-13T22:43:54.203Z,73.91
2023-03-13T22:46:20.675Z,74.57
2023-03-13T22:48:47.053Z,74.60
2023-03-13T22:51:14.232Z,74.35
2023-03-13T22:53:41.730Z,74.53
2023-03-13T22:56:12.984Z,74.69
2023-03-13T22:58:40.491Z,74.46
2023-03-13T23:01:18.445Z,74.38
2023-03-13T23:03:45.556Z,75.17
2023-03-13T23:06:17.540Z,75.02
2023-03-13T23:08:44.264Z,75.37
2023-03-13T23:11:10.798Z,75.26
2023-03-13T23:13:37.217Z,75.39
2023-03-13T23:16:09.297Z,75.65
2023-03-13T23:18:37.023Z,76.25
2023-03-13T23:21:09.461Z,76.11
2023-03-13T23:23:36.337Z,76.09
2023-03-13T23:26:04.148Z,75.47
2023-03-13T23:28:30.722Z,74.81
2023-03-13T23:30:57.348Z,74.12
2023-03-13T23:33:23.776Z,74.88
2023-03-13T23:35:50.171Z,75.26
2023-03-13T23:38:18.385Z,74.93
2023-03-13T23:40:44.913Z,75.50
2023-03-13T23:43:11.305Z,75.21
2023-03-13T23:45:37.788Z,75.25
2023-03-13T23:48:04.725Z,75.73
2023-03-13T23:50:31.119Z,75.76
2023-03-13T23:52:57.796Z,75.97
2023-03-13T23:55:24.319Z,76.30
2023-03-13T23:57:50.683Z,76.57
